Time;durP1;ratioP1;P1;durP2;ratioP2;P2;SDS_P1;SDS_P2;PMS_P1;PMS_P2;Temp;Humidity;BMP_temperature;BMP_pressure;BME280_temperature;BME280_humidity;BME280_pressure;Samples;Min_cycle;Max_cycle;Signal;HPM_P1;HPM_P2
2023/09/09 00:00:31;;;;;;;22.73;13.43;;;18.60;99.90;;;;;;4987136;28;20405;-60
2023/09/09 00:02:57;;;;;;;19.48;13.70;;;18.60;99.90;;;;;;4988284;28;20030;-57
2023/09/09 00:05:22;;;;;;;22.00;13.88;;;18.60;99.90;;;;;;4986568;28;20030;-61
2023/09/09 00:07:48;;;;;;;24.27;14.23;;;18.50;99.90;;;;;;4989495;28;20022;-56
2023/09/09 00:10:13;;;;;;;20.65;12.95;;;18.50;99.90;;;;;;4987711;28;20034;-55
2023/09/09 00:12:39;;;;;;;18.33;13.45;;;18.50;99.90;;;;;;4984923;28;20404;-61
2023/09/09 00:15:05;;;;;;;16.90;12.48;;;18.40;99.90;;;;;;4986853;28;20065;-61
2023/09/09 00:17:31;;;;;;;30.35;12.88;;;18.40;99.90;;;;;;4984751;28;20616;-62
2023/09/09 00:19:57;;;;;;;18.73;11.25;;;18.40;99.90;;;;;;4986112;28;20040;-58
2023/09/09 00:22:22;;;;;;;18.73;11.65;;;18.30;99.90;;;;;;4987610;28;20027;-60
2023/09/09 00:24:48;;;;;;;17.60;11.88;;;18.30;99.90;;;;;;4989158;28;20019;-59
2023/09/09 00:27:13;;;;;;;19.15;12.13;;;18.30;99.90;;;;;;4984292;28;20026;-61
2023/09/09 00:29:39;;;;;;;17.90;11.82;;;18.30;99.90;;;;;;4982214;28;20384;-58
2023/09/09 00:32:04;;;;;;;17.05;12.57;;;18.30;99.90;;;;;;4985649;28;20030;-59
2023/09/09 00:34:33;;;;;;;19.27;11.48;;;18.30;99.90;;;;;;4984689;28;20030;-57
2023/09/09 00:36:58;;;;;;;17.55;11.10;;;18.30;99.90;;;;;;4984352;28;20041;-54
2023/09/09 00:39:24;;;;;;;21.90;11.20;;;18.30;99.90;;;;;;4985718;28;20030;-59
2023/09/09 00:41:49;;;;;;;19.27;12.00;;;18.20;99.90;;;;;;4987911;28;20014;-54
2023/09/09 00:44:15;;;;;;;24.10;12.52;;;18.20;99.90;;;;;;4986643;28;20773;-60
2023/09/09 00:46:40;;;;;;;18.40;11.95;;;18.10;99.90;;;;;;4978892;28;20692;-60
2023/09/09 00:49:06;;;;;;;20.55;12.00;;;18.10;99.90;;;;;;4981485;28;20097;-59
2023/09/09 00:51:31;;;;;;;18.70;12.32;;;18.10;99.90;;;;;;4988697;28;20026;-61
2023/09/09 00:53:57;;;;;;;21.17;12.90;;;18.10;99.90;;;;;;4988897;28;20192;-61
2023/09/09 00:56:23;;;;;;;17.50;12.13;;;18.10;99.90;;;;;;4988190;28;20022;-61
2023/09/09 00:58:48;;;;;;;20.05;12.25;;;18.10;99.90;;;;;;4984368;28;20428;-59
2023/09/09 01:01:14;;;;;;;18.10;12.18;;;18.00;99.90;;;;;;4985596;28;20081;-61
2023/09/09 01:03:39;;;;;;;17.52;11.43;;;18.10;99.90;;;;;;4985193;28;20093;-58
2023/09/09 01:06:05;;;;;;;17.65;11.55;;;18.10;99.90;;;;;;4985467;28;20098;-57
2023/09/09 01:08:31;;;;;;;22.05;12.00;;;18.10;99.90;;;;;;4985278;28;20032;-60
2023/09/09 01:10:57;;;;;;;21.75;12.95;;;18.10;99.90;;;;;;4983698;28;20109;-58
2023/09/09 01:13:23;;;;;;;24.17;11.85;;;18.10;99.90;;;;;;4986122;28;20030;-61
2023/09/09 01:15:49;;;;;;;18.67;11.23;;;18.00;99.90;;;;;;4980058;28;20035;-57
2023/09/09 01:18:17;;;;;;;24.05;11.88;;;18.00;99.90;;;;;;4988639;28;20057;-59
2023/09/09 01:20:46;;;;;;;20.90;12.15;;;18.00;99.90;;;;;;4982978;28;20527;-57
2023/09/09 01:23:11;;;;;;;16.58;11.00;;;17.90;99.90;;;;;;4985607;28;20057;-60
2023/09/09 01:25:37;;;;;;;16.80;11.82;;;17.90;99.90;;;;;;4987437;28;20461;-59
2023/09/09 01:28:03;;;;;;;19.30;11.52;;;17.90;99.90;;;;;;4986486;28;20036;-61
2023/09/09 01:30:28;;;;;;;15.90;10.88;;;17.80;99.90;;;;;;4983711;28;20102;-60
2023/09/09 01:32:54;;;;;;;20.05;10.18;;;17.80;99.90;;;;;;4985747;28;20045;-60
2023/09/09 01:35:19;;;;;;;18.10;11.80;;;17.80;99.90;;;;;;4989517;28;20026;-59
2023/09/09 01:37:45;;;;;;;15.55;10.60;;;17.80;99.90;;;;;;4987117;28;20073;-59
2023/09/09 01:40:12;;;;;;;16.20;11.32;;;17.80;99.90;;;;;;4989455;28;20411;-59
2023/09/09 01:42:38;;;;;;;15.30;11.23;;;17.80;99.90;;;;;;4981936;28;20380;-61
2023/09/09 01:45:04;;;;;;;16.77;10.43;;;17.80;99.90;;;;;;4983561;28;20014;-57
2023/09/09 01:47:30;;;;;;;18.00;10.90;;;17.70;99.90;;;;;;4980876;28;20034;-59
2023/09/09 01:49:55;;;;;;;13.98;10.50;;;17.70;99.90;;;;;;4985272;28;20029;-62
2023/09/09 01:52:21;;;;;;;17.52;11.30;;;17.70;99.90;;;;;;4979285;28;20639;-59
2023/09/09 01:54:47;;;;;;;18.23;11.30;;;17.70;99.90;;;;;;4983428;28;20022;-59
2023/09/09 01:57:14;;;;;;;17.38;10.57;;;17.60;99.90;;;;;;4989011;28;20030;-56
2023/09/09 01:59:40;;;;;;;19.30;11.02;;;17.60;99.90;;;;;;4984925;28;20015;-60
2023/09/09 02:02:06;;;;;;;15.63;10.70;;;17.60;99.90;;;;;;4989045;28;20021;-59
2023/09/09 02:04:31;;;;;;;17.65;11.40;;;17.60;99.90;;;;;;4990061;28;20165;-55
2023/09/09 02:06:57;;;;;;;18.33;11.70;;;17.50;99.90;;;;;;4991786;28;20109;-61
2023/09/09 02:09:22;;;;;;;19.38;12.35;;;17.50;99.90;;;;;;4993156;28;20026;-61
2023/09/09 02:11:48;;;;;;;18.98;11.45;;;17.50;99.90;;;;;;4989200;28;20019;-57
2023/09/09 02:14:13;;;;;;;14.63;10.80;;;17.50;99.90;;;;;;4989333;28;20022;-60
2023/09/09 02:16:39;;;;;;;14.80;10.80;;;17.40;99.90;;;;;;4990574;28;20018;-60
2023/09/09 02:19:05;;;;;;;20.88;11.88;;;17.40;99.90;;;;;;4989915;28;20376;-60
2023/09/09 02:21:30;;;;;;;21.00;10.68;;;17.40;99.90;;;;;;4991348;28;20069;-60
2023/09/09 02:23:56;;;;;;;14.80;10.50;;;17.40;99.90;;;;;;4985949;28;20026;-60
2023/09/09 02:26:21;;;;;;;19.02;11.23;;;17.40;99.90;;;;;;4987582;28;20022;-58
2023/09/09 02:28:49;;;;;;;16.90;11.63;;;17.40;99.90;;;;;;4990179;28;20030;-60
2023/09/09 02:31:14;;;;;;;18.23;11.98;;;17.40;99.90;;;;;;4983208;28;20026;-57
2023/09/09 02:33:40;;;;;;;18.00;11.65;;;17.40;99.90;;;;;;4990723;28;20381;-60
2023/09/09 02:36:06;;;;;;;21.80;11.43;;;17.40;99.90;;;;;;4991464;28;20033;-56
2023/09/09 02:38:31;;;;;;;15.82;11.05;;;17.40;99.90;;;;;;4987285;28;20068;-56
2023/09/09 02:40:57;;;;;;;13.85;10.73;;;17.30;99.90;;;;;;4990059;28;20106;-56
2023/09/09 02:43:22;;;;;;;15.85;10.65;;;17.30;99.90;;;;;;4988087;28;20057;-58
2023/09/09 02:45:48;;;;;;;16.65;10.90;;;17.30;99.90;;;;;;4986181;28;20110;-60
2023/09/09 02:48:13;;;;;;;17.20;12.00;;;17.30;99.90;;;;;;4986388;28;20027;-58
2023/09/09 02:50:39;;;;;;;16.00;11.98;;;17.30;99.90;;;;;;4988138;28;20031;-59
2023/09/09 02:53:04;;;;;;;16.42;10.95;;;17.30;99.90;;;;;;4989869;28;20069;-59
2023/09/09 02:55:30;;;;;;;19.30;11.65;;;17.20;99.90;;;;;;4986959;28;20076;-59
2023/09/09 02:57:55;;;;;;;18.65;11.65;;;17.20;99.90;;;;;;4987632;28;20110;-58
2023/09/09 03:00:21;;;;;;;14.88;11.20;;;17.20;99.90;;;;;;4983660;28;20101;-60
2023/09/09 03:02:49;;;;;;;16.50;11.60;;;17.20;99.90;;;;;;4986445;28;20019;-58
2023/09/09 03:05:14;;;;;;;15.10;11.00;;;17.10;99.90;;;;;;4988535;28;20112;-58
2023/09/09 03:07:40;;;;;;;17.58;10.88;;;17.00;99.90;;;;;;4990718;28;20026;-60
2023/09/09 03:10:06;;;;;;;16.85;10.45;;;16.90;99.90;;;;;;4987554;28;20023;-60
2023/09/09 03:12:31;;;;;;;16.40;11.45;;;16.90;99.90;;;;;;4990505;28;20113;-59
2023/09/09 03:14:57;;;;;;;17.20;11.18;;;16.90;99.90;;;;;;4992676;28;20117;-58
2023/09/09 03:17:22;;;;;;;16.13;11.48;;;16.80;99.90;;;;;;4983630;28;20030;-61
2023/09/09 03:19:48;;;;;;;15.05;10.68;;;16.90;99.90;;;;;;4987501;28;20029;-58
2023/09/09 03:22:13;;;;;;;18.50;13.00;;;16.90;99.90;;;;;;4988050;28;20053;-59
2023/09/09 03:24:39;;;;;;;20.23;11.10;;;16.90;99.90;;;;;;4987789;28;20075;-56
2023/09/09 03:27:04;;;;;;;24.98;12.50;;;16.90;99.90;;;;;;4986743;28;20045;-61
2023/09/09 03:29:30;;;;;;;25.83;11.70;;;16.80;99.90;;;;;;4989404;28;20038;-60
2023/09/09 03:31:56;;;;;;;17.50;10.93;;;16.90;99.90;;;;;;4985719;28;20068;-61
2023/09/09 03:34:21;;;;;;;18.98;11.88;;;16.90;99.90;;;;;;4984934;28;20092;-61
2023/09/09 03:36:47;;;;;;;16.67;11.82;;;16.90;99.90;;;;;;4984707;28;20511;-61
2023/09/09 03:39:13;;;;;;;20.13;11.02;;;16.80;99.90;;;;;;4986325;28;20073;-61
2023/09/09 03:41:39;;;;;;;19.65;10.98;;;16.80;99.90;;;;;;4987922;28;20022;-61
2023/09/09 03:44:05;;;;;;;17.92;10.65;;;16.80;99.90;;;;;;4983949;28;20027;-60
2023/09/09 03:46:31;;;;;;;17.85;11.70;;;16.80;99.90;;;;;;4984196;28;20038;-60
2023/09/09 03:48:57;;;;;;;16.73;11.23;;;16.70;99.90;;;;;;4984618;28;20503;-61
2023/09/09 03:51:22;;;;;;;14.75;10.93;;;16.70;99.90;;;;;;4988968;28;20027;-58
2023/09/09 03:53:48;;;;;;;20.08;11.15;;;16.70;99.90;;;;;;4988520;28;20498;-56
2023/09/09 03:56:16;;;;;;;16.95;11.48;;;16.70;99.90;;;;;;4987504;28;20027;-60
2023/09/09 03:58:41;;;;;;;16.30;12.02;;;16.70;99.90;;;;;;4986247;28;20022;-57
2023/09/09 04:01:10;;;;;;;16.30;11.50;;;16.70;99.90;;;;;;4987004;28;20380;-60
2023/09/09 04:03:37;;;;;;;18.58;11.10;;;16.60;99.90;;;;;;4986705;28;20495;-61
2023/09/09 04:06:04;;;;;;;15.73;11.43;;;16.60;99.90;;;;;;4989239;28;20036;-57
2023/09/09 04:08:30;;;;;;;22.50;14.02;;;16.60;99.90;;;;;;4988165;28;20477;-56
2023/09/09 04:10:56;;;;;;;17.20;11.90;;;16.60;99.90;;;;;;4984210;28;20507;-60
2023/09/09 04:13:21;;;;;;;18.73;11.38;;;16.60;99.90;;;;;;4985825;28;20056;-61
2023/09/09 04:15:47;;;;;;;15.60;11.65;;;16.50;99.90;;;;;;4983216;28;20029;-59
2023/09/09 04:18:13;;;;;;;14.68;11.05;;;16.50;99.90;;;;;;4988983;28;20026;-61
2023/09/09 04:20:38;;;;;;;17.13;12.15;;;16.50;99.90;;;;;;4986561;28;20014;-59
2023/09/09 04:23:04;;;;;;;17.33;12.30;;;16.50;99.90;;;;;;4983188;28;20069;-62
2023/09/09 04:25:30;;;;;;;18.30;11.07;;;16.50;99.90;;;;;;4985958;28;20133;-60
2023/09/09 04:27:55;;;;;;;19.80;12.15;;;16.40;99.90;;;;;;4984027;28;20081;-61
2023/09/09 04:30:21;;;;;;;18.27;12.40;;;16.40;99.90;;;;;;4985896;28;20391;-61
2023/09/09 04:32:46;;;;;;;19.42;12.48;;;16.40;99.90;;;;;;4988883;28;20093;-59
2023/09/09 04:35:12;;;;;;;20.02;11.70;;;16.40;99.90;;;;;;4984924;28;20030;-61
2023/09/09 04:37:38;;;;;;;18.15;12.00;;;16.40;99.90;;;;;;4988249;28;20041;-61
2023/09/09 04:40:05;;;;;;;17.35;11.77;;;16.40;99.90;;;;;;4987080;28;20027;-58
2023/09/09 04:42:32;;;;;;;14.65;11.20;;;16.40;99.90;;;;;;4981395;28;20022;-59
2023/09/09 04:44:58;;;;;;;20.30;11.30;;;16.40;99.90;;;;;;4989453;28;20018;-59
2023/09/09 04:47:24;;;;;;;15.45;11.23;;;16.40;99.90;;;;;;4988705;28;20384;-58
2023/09/09 04:49:50;;;;;;;19.73;12.00;;;16.40;99.90;;;;;;4984507;28;20026;-60
2023/09/09 04:52:15;;;;;;;18.60;11.65;;;16.30;99.90;;;;;;4987533;28;20551;-60
2023/09/09 04:54:42;;;;;;;14.27;11.45;;;16.30;99.90;;;;;;4987855;28;20703;-60
2023/09/09 04:57:08;;;;;;;19.60;11.88;;;16.30;99.90;;;;;;4983987;28;20030;-60
2023/09/09 04:59:34;;;;;;;16.30;11.93;;;16.30;99.90;;;;;;4987218;28;20092;-61
2023/09/09 05:02:00;;;;;;;19.33;11.98;;;16.30;99.90;;;;;;4985254;28;20034;-58
2023/09/09 05:04:25;;;;;;;15.48;11.82;;;16.20;99.90;;;;;;4988552;28;20018;-59
2023/09/09 05:06:53;;;;;;;21.48;13.52;;;16.20;99.90;;;;;;4985036;28;20070;-56
2023/09/09 05:09:19;;;;;;;21.67;12.90;;;16.20;99.90;;;;;;4986797;28;20508;-61
2023/09/09 05:11:44;;;;;;;21.00;12.35;;;16.20;99.90;;;;;;4986733;28;20033;-61
2023/09/09 05:14:10;;;;;;;21.23;12.65;;;16.20;99.90;;;;;;4984775;28;20029;-59
2023/09/09 05:16:37;;;;;;;17.10;11.75;;;16.30;99.90;;;;;;4985819;28;20033;-61
2023/09/09 05:19:02;;;;;;;18.08;11.38;;;16.20;99.90;;;;;;4985272;28;20014;-59
2023/09/09 05:21:28;;;;;;;16.75;12.07;;;16.30;99.90;;;;;;4989399;28;20094;-55
2023/09/09 05:23:53;;;;;;;19.05;12.43;;;16.20;99.90;;;;;;4985724;28;20038;-59
2023/09/09 05:26:20;;;;;;;15.95;12.15;;;16.30;99.90;;;;;;4982887;28;20579;-60
2023/09/09 05:28:47;;;;;;;15.68;10.52;;;16.30;99.90;;;;;;4985224;28;20056;-60
2023/09/09 05:31:16;;;;;;;21.08;11.52;;;16.30;99.90;;;;;;4981635;28;20030;-58
2023/09/09 05:33:41;;;;;;;22.75;12.13;;;16.30;99.90;;;;;;4986185;28;20031;-61
2023/09/09 05:36:07;;;;;;;22.90;11.15;;;16.30;99.90;;;;;;4990807;28;20030;-59
2023/09/09 05:38:32;;;;;;;18.02;12.52;;;16.30;99.90;;;;;;4994156;28;20026;-54
2023/09/09 05:40:58;;;;;;;17.30;12.00;;;16.40;99.90;;;;;;4989894;28;20519;-61
2023/09/09 05:43:23;;;;;;;16.52;11.25;;;16.40;99.90;;;;;;4988385;28;20061;-61
2023/09/09 05:45:49;;;;;;;22.33;11.32;;;16.40;99.90;;;;;;4989041;28;20416;-62
2023/09/09 05:48:15;;;;;;;18.73;11.70;;;16.50;99.90;;;;;;4988603;28;20489;-61
2023/09/09 05:50:40;;;;;;;18.20;11.27;;;16.50;99.90;;;;;;4990490;28;20499;-60
2023/09/09 05:53:06;;;;;;;18.35;11.32;;;16.50;99.90;;;;;;4989010;28;20377;-62
2023/09/09 05:55:32;;;;;;;14.77;10.90;;;16.60;99.90;;;;;;4988012;28;20061;-62
2023/09/09 05:57:57;;;;;;;21.80;10.55;;;16.60;99.90;;;;;;4986071;28;20018;-61
2023/09/09 06:00:23;;;;;;;16.85;10.23;;;16.70;99.90;;;;;;4980078;28;20078;-59
2023/09/09 06:02:48;;;;;;;18.17;11.52;;;16.70;99.90;;;;;;4988704;28;20103;-62
2023/09/09 06:05:15;;;;;;;16.65;11.07;;;16.80;99.90;;;;;;4986718;28;20084;-62
2023/09/09 06:07:41;;;;;;;14.98;10.95;;;16.80;99.90;;;;;;4987085;28;20123;-61
2023/09/09 06:10:07;;;;;;;19.20;11.15;;;16.80;99.90;;;;;;4991653;28;20038;-60
2023/09/09 06:12:34;;;;;;;18.98;11.93;;;16.90;99.90;;;;;;4982354;28;20488;-61
2023/09/09 06:14:59;;;;;;;17.70;11.15;;;16.90;99.90;;;;;;4985801;28;20031;-58
2023/09/09 06:17:25;;;;;;;18.90;11.43;;;17.00;99.90;;;;;;4990525;28;20030;-61
2023/09/09 06:19:50;;;;;;;15.43;10.75;;;17.00;99.90;;;;;;4988623;28;20030;-58
2023/09/09 06:22:16;;;;;;;18.33;10.13;;;17.10;99.90;;;;;;4994385;28;20027;-60
2023/09/09 06:24:42;;;;;;;17.33;11.15;;;17.10;99.90;;;;;;4992259;28;20030;-57
2023/09/09 06:27:08;;;;;;;16.48;10.05;;;17.20;99.90;;;;;;4993304;28;20043;-60
2023/09/09 06:29:34;;;;;;;15.68;10.82;;;17.20;99.90;;;;;;4990912;28;20072;-59
2023/09/09 06:31:59;;;;;;;18.60;10.45;;;17.30;99.90;;;;;;4993350;28;20058;-59
2023/09/09 06:34:25;;;;;;;18.38;11.10;;;17.30;99.90;;;;;;4991650;28;20500;-57
2023/09/09 06:36:52;;;;;;;15.82;10.80;;;17.40;99.90;;;;;;4988950;28;20121;-60
2023/09/09 06:39:17;;;;;;;16.65;9.90;;;17.50;99.90;;;;;;4990906;28;20049;-60
2023/09/09 06:41:43;;;;;;;16.92;10.10;;;17.50;99.90;;;;;;4991694;28;20034;-60
2023/09/09 06:44:08;;;;;;;13.75;10.23;;;17.60;99.90;;;;;;4989825;28;20053;-58
2023/09/09 06:46:34;;;;;;;17.98;10.90;;;17.60;99.90;;;;;;4987035;28;20057;-61
2023/09/09 06:48:59;;;;;;;15.43;10.32;;;17.70;99.90;;;;;;4988298;28;20400;-57
2023/09/09 06:51:25;;;;;;;14.15;9.88;;;17.80;99.90;;;;;;4990237;28;20033;-58
2023/09/09 06:53:51;;;;;;;19.17;10.57;;;17.80;99.90;;;;;;4991474;28;20560;-57
2023/09/09 06:56:16;;;;;;;13.82;10.00;;;17.90;99.90;;;;;;4991733;28;20962;-58
2023/09/09 06:58:42;;;;;;;16.52;10.13;;;17.90;99.90;;;;;;4988576;28;20030;-61
2023/09/09 07:01:07;;;;;;;15.13;10.88;;;18.10;99.90;;;;;;4985926;28;20046;-62
2023/09/09 07:03:33;;;;;;;17.27;10.80;;;18.10;99.90;;;;;;4989195;28;20045;-59
2023/09/09 07:06:00;;;;;;;14.60;10.48;;;18.20;99.90;;;;;;4981609;28;20034;-58
2023/09/09 07:08:25;;;;;;;16.42;10.07;;;18.30;99.90;;;;;;4980955;28;20097;-59
2023/09/09 07:10:54;;;;;;;14.15;9.60;;;18.30;99.90;;;;;;4982398;28;20044;-61
2023/09/09 07:13:23;;;;;;;16.75;10.15;;;18.40;99.90;;;;;;4984137;28;20041;-60
2023/09/09 07:15:53;;;;;;;17.25;9.95;;;18.40;99.90;;;;;;4986022;28;20120;-61
2023/09/09 07:18:19;;;;;;;14.05;10.63;;;18.50;99.90;;;;;;4988942;28;20017;-58
2023/09/09 07:20:46;;;;;;;18.85;11.13;;;18.60;99.90;;;;;;4991101;28;20088;-59
2023/09/09 07:23:16;;;;;;;19.92;10.48;;;18.70;99.90;;;;;;4988313;28;20023;-62
2023/09/09 07:25:46;;;;;;;18.70;10.43;;;18.80;99.90;;;;;;4987777;28;20026;-61
2023/09/09 07:28:12;;;;;;;14.15;10.38;;;18.80;99.90;;;;;;4990341;28;20098;-61
2023/09/09 07:30:38;;;;;;;19.92;11.10;;;18.90;99.90;;;;;;4989129;28;20117;-62
2023/09/09 07:33:04;;;;;;;18.13;10.05;;;19.00;99.90;;;;;;4985984;28;20524;-62
2023/09/09 07:35:30;;;;;;;14.80;10.85;;;19.10;99.90;;;;;;4986040;28;20042;-60
2023/09/09 07:37:56;;;;;;;15.10;10.57;;;19.20;99.90;;;;;;4987665;28;20444;-59
2023/09/09 07:40:21;;;;;;;15.70;10.07;;;19.20;99.90;;;;;;4982943;28;20109;-59
2023/09/09 07:42:49;;;;;;;15.40;10.45;;;19.30;99.90;;;;;;4985631;28;20031;-60
2023/09/09 07:45:14;;;;;;;14.73;10.93;;;19.40;99.90;;;;;;4984158;28;20027;-60
2023/09/09 07:47:40;;;;;;;18.65;11.50;;;19.50;99.90;;;;;;4986447;28;20085;-59
2023/09/09 07:50:06;;;;;;;14.00;9.82;;;19.60;99.90;;;;;;4983932;28;20031;-59
2023/09/09 07:52:32;;;;;;;18.25;11.00;;;19.70;99.90;;;;;;4989433;28;20069;-60
2023/09/09 07:54:57;;;;;;;14.00;10.60;;;19.80;99.90;;;;;;4987647;28;20065;-61
2023/09/09 07:57:23;;;;;;;17.45;11.48;;;19.80;99.90;;;;;;4985904;28;20042;-59
2023/09/09 07:59:49;;;;;;;19.90;11.45;;;20.00;99.90;;;;;;4985366;28;20101;-59
2023/09/09 08:02:15;;;;;;;17.30;12.02;;;20.00;99.90;;;;;;4984675;28;20045;-59
2023/09/09 08:04:40;;;;;;;18.13;11.65;;;20.10;99.90;;;;;;4985681;28;20049;-59
2023/09/09 08:07:06;;;;;;;16.30;11.27;;;20.20;99.90;;;;;;4988284;28;20026;-60
2023/09/09 08:09:32;;;;;;;24.30;12.32;;;20.30;99.90;;;;;;4987703;28;20066;-58
2023/09/09 08:11:58;;;;;;;19.55;11.32;;;20.40;99.90;;;;;;4986546;28;20436;-59
2023/09/09 08:14:23;;;;;;;21.35;11.13;;;20.60;99.90;;;;;;4988349;28;20031;-59
2023/09/09 08:16:49;;;;;;;16.77;10.20;;;20.60;99.90;;;;;;4986253;28;20034;-57
2023/09/09 08:19:15;;;;;;;24.85;12.15;;;20.70;99.90;;;;;;4990347;28;20026;-59
2023/09/09 08:21:41;;;;;;;19.25;10.95;;;20.90;99.90;;;;;;4985631;28;20046;-60
2023/09/09 08:24:07;;;;;;;28.00;15.80;;;20.90;99.90;;;;;;4985675;28;20077;-60
2023/09/09 08:26:32;;;;;;;18.58;10.95;;;21.00;99.90;;;;;;4989196;28;20113;-61
2023/09/09 08:28:58;;;;;;;24.15;11.98;;;21.10;99.90;;;;;;4989055;28;20046;-59
2023/09/09 08:31:24;;;;;;;17.40;10.98;;;21.20;99.90;;;;;;4986593;28;20026;-60
2023/09/09 08:33:49;;;;;;;19.42;12.20;;;21.30;99.90;;;;;;4988976;28;20087;-59
2023/09/09 08:36:16;;;;;;;17.85;11.43;;;21.40;99.90;;;;;;4988708;28;20041;-59
2023/09/09 08:38:42;;;;;;;17.73;10.43;;;21.50;99.90;;;;;;4980416;28;20022;-61
2023/09/09 08:41:25;;;;;;;14.85;9.80;;;21.60;99.90;;;;;;4985148;28;20033;-59
2023/09/09 08:44:29;;;;;;;15.95;9.52;;;21.70;99.90;;;;;;4987585;28;20034;-58
2023/09/09 08:46:55;;;;;;;18.08;10.15;;;21.80;99.90;;;;;;4986247;28;20500;-60
2023/09/09 08:49:23;;;;;;;20.77;10.80;;;21.90;99.90;;;;;;4988622;28;20037;-57
2023/09/09 08:51:57;;;;;;;15.75;10.80;;;22.00;99.90;;;;;;4989652;28;20429;-60
2023/09/09 08:54:24;;;;;;;;;;;22.10;99.90;;;;;;4988670;28;20362;-59
2023/09/09 08:56:50;;;;;;;16.60;10.48;;;22.20;99.90;;;;;;4990190;28;19913;-59
2023/09/09 08:59:16;;;;;;;16.65;9.48;;;22.40;99.90;;;;;;4988772;28;20393;-58
2023/09/09 09:01:43;;;;;;;15.27;9.90;;;22.50;99.90;;;;;;4987949;28;20034;-59
2023/09/09 09:04:08;;;;;;;19.00;11.02;;;22.60;99.90;;;;;;4987827;28;20117;-58
2023/09/09 09:06:35;;;;;;;20.58;10.15;;;22.70;99.90;;;;;;4989804;28;20109;-58
2023/09/09 09:09:01;;;;;;;16.25;10.07;;;22.90;99.90;;;;;;4989898;28;20027;-58
2023/09/09 09:11:26;;;;;;;16.80;9.70;;;23.10;99.90;;;;;;4992265;28;20535;-60
2023/09/09 09:13:53;;;;;;;22.27;9.13;;;23.20;99.90;;;;;;4990856;28;20036;-59
2023/09/09 09:16:18;;;;;;;15.05;9.77;;;23.30;99.90;;;;;;4991834;28;20022;-61
2023/09/09 09:18:44;;;;;;;21.60;10.20;;;23.40;99.90;;;;;;4992725;28;20029;-61
2023/09/09 09:21:10;;;;;;;19.55;10.07;;;23.50;99.90;;;;;;4991024;28;20030;-61
2023/09/09 09:23:43;;;;;;;23.88;9.73;;;23.70;99.90;;;;;;4992393;28;20105;-59
2023/09/09 09:26:23;;;;;;;21.38;8.48;;;23.90;99.90;;;;;;4990427;28;20030;-60
2023/09/09 09:28:48;;;;;;;20.25;9.40;;;24.00;99.90;;;;;;4993052;28;20030;-59
2023/09/09 09:31:24;;;;;;;17.85;9.07;;;24.20;99.90;;;;;;4991063;28;20554;-61
2023/09/09 09:33:51;;;;;;;16.90;8.18;;;24.30;99.90;;;;;;4988944;28;20064;-60
2023/09/09 09:36:20;;;;;;;19.08;8.60;;;24.40;99.90;;;;;;4988606;28;20027;-61
2023/09/09 09:38:48;;;;;;;19.23;9.13;;;24.60;99.90;;;;;;4991949;28;20033;-59
2023/09/09 09:41:18;;;;;;;14.15;9.40;;;24.80;99.90;;;;;;4990413;28;20045;-59
2023/09/09 09:43:48;;;;;;;18.88;9.85;;;24.90;99.90;;;;;;4988107;28;20493;-61
2023/09/09 09:46:19;;;;;;;17.17;9.30;;;25.00;99.90;;;;;;4988782;28;20499;-60
2023/09/09 09:48:45;;;;;;;18.35;8.95;;;25.10;99.90;;;;;;4988706;28;20025;-60
2023/09/09 09:51:11;;;;;;;16.83;8.75;;;25.20;99.90;;;;;;4987590;28;20026;-57
2023/09/09 09:53:46;;;;;;;20.35;8.43;;;25.50;99.90;;;;;;4989399;28;20029;-59
2023/09/09 09:56:12;;;;;;;29.48;9.55;;;25.80;99.90;;;;;;4990989;28;20022;-60
2023/09/09 09:58:38;;;;;;;18.25;8.45;;;26.00;99.90;;;;;;4991590;28;20026;-61
2023/09/09 10:01:05;;;;;;;14.07;7.93;;;26.10;99.90;;;;;;4991691;28;20405;-59
2023/09/09 10:03:47;;;;;;;25.50;8.65;;;26.30;99.90;;;;;;4987530;28;20463;-60
2023/09/09 10:06:18;;;;;;;13.30;7.63;;;26.40;99.90;;;;;;4988486;28;20027;-59
2023/09/09 10:08:53;;;;;;;16.92;7.97;;;26.50;99.90;;;;;;4989190;28;20109;-60
2023/09/09 10:11:22;;;;;;;17.83;7.80;;;26.60;99.90;;;;;;4993837;28;20018;-58
2023/09/09 10:14:27;;;;;;;19.52;8.43;;;26.90;99.90;;;;;;4993373;28;20026;-61
2023/09/09 10:16:53;;;;;;;13.20;7.88;;;27.20;99.90;;;;;;4947109;29;20043;-59
2023/09/09 10:19:19;;;;;;;22.20;8.10;;;27.50;99.90;;;;;;4948915;29;20417;-61
2023/09/09 10:21:47;;;;;;;13.10;6.28;;;27.60;99.90;;;;;;4970288;28;20045;-60
2023/09/09 10:24:14;;;;;;;15.82;7.63;;;27.70;99.90;;;;;;4987633;28;20022;-59
2023/09/09 10:26:41;;;;;;;17.42;8.05;;;28.00;99.90;;;;;;4992396;28;20050;-61
2023/09/09 10:29:07;;;;;;;14.20;7.80;;;27.90;99.90;;;;;;4991790;28;20413;-61
2023/09/09 10:31:35;;;;;;;18.55;7.43;;;27.80;99.90;;;;;;4990875;28;21776;-59
2023/09/09 10:34:02;;;;;;;13.10;6.88;;;27.90;99.90;;;;;;4990051;28;20026;-58
2023/09/09 10:36:31;;;;;;;23.88;8.00;;;28.30;99.90;;;;;;4987306;28;20382;-59
2023/09/09 10:38:56;;;;;;;18.10;7.28;;;28.60;99.90;;;;;;4990806;28;20018;-62
2023/09/09 10:41:22;;;;;;;16.90;7.40;;;28.80;99.90;;;;;;4991048;28;20504;-61
2023/09/09 10:43:48;;;;;;;18.48;7.30;;;28.90;99.90;;;;;;4993285;28;20056;-56
2023/09/09 10:46:13;;;;;;;15.93;7.95;;;29.00;99.90;;;;;;4992940;28;20037;-60
2023/09/09 10:48:42;;;;;;;14.93;7.90;;;29.00;99.90;;;;;;4991310;28;20033;-60
2023/09/09 10:51:08;;;;;;;19.63;8.25;;;29.10;99.90;;;;;;4989029;28;20124;-60
2023/09/09 10:53:33;;;;;;;17.17;7.55;;;29.10;99.90;;;;;;4987452;28;20631;-60
2023/09/09 10:56:00;;;;;;;19.27;7.38;;;29.40;99.90;;;;;;4985491;28;20536;-60
2023/09/09 10:58:37;;;;;;;15.70;7.20;;;29.40;99.90;;;;;;4990778;28;20518;-60
2023/09/09 11:01:06;;;;;;;12.63;6.28;;;29.40;99.90;;;;;;4985054;28;20065;-61
2023/09/09 11:03:40;;;;;;;14.93;7.22;;;29.40;99.90;;;;;;4988128;28;20037;-61
2023/09/09 11:06:24;;;;;;;19.38;6.95;;;29.30;99.90;;;;;;4987367;28;20523;-60
2023/09/09 11:08:58;;;;;;;23.15;6.80;;;29.30;99.90;;;;;;4989826;28;20038;-60
2023/09/09 11:11:37;;;;;;;21.50;7.00;;;29.50;99.90;;;;;;4990696;28;20096;-61
2023/09/09 11:14:07;;;;;;;23.17;7.78;;;29.60;99.90;;;;;;4988959;28;20026;-60
2023/09/09 11:16:37;;;;;;;21.48;7.32;;;29.60;99.90;;;;;;4991211;28;20563;-62
2023/09/09 11:19:12;;;;;;;26.90;7.25;;;29.90;99.90;;;;;;4988407;28;20653;-60
2023/09/09 11:21:46;;;;;;;16.13;6.72;;;29.90;99.90;;;;;;4990707;28;20067;-61
2023/09/09 11:24:12;;;;;;;28.20;7.25;;;30.00;99.90;;;;;;4989474;28;20053;-59
2023/09/09 11:26:39;;;;;;;23.30;7.50;;;30.00;99.90;;;;;;4992361;28;20516;-61
2023/09/09 11:29:05;;;;;;;18.25;6.38;;;30.20;99.90;;;;;;4992429;28;20512;-61
2023/09/09 11:31:31;;;;;;;21.58;6.32;;;30.50;99.90;;;;;;4990126;28;20057;-60
2023/09/09 11:33:57;;;;;;;16.17;6.68;;;30.70;99.90;;;;;;4987707;28;20022;-60
2023/09/09 11:36:23;;;;;;;19.92;7.55;;;30.80;99.90;;;;;;4991252;28;20615;-60
2023/09/09 11:38:48;;;;;;;21.98;6.57;;;31.00;99.90;;;;;;4992416;28;20022;-60
2023/09/09 11:41:21;;;;;;;18.27;6.38;;;31.10;99.90;;;;;;4992672;28;20073;-59
2023/09/09 11:43:57;;;;;;;22.10;7.43;;;31.50;99.90;;;;;;4991655;28;20022;-59
2023/09/09 11:46:24;;;;;;;25.75;6.50;;;31.50;99.90;;;;;;4988735;28;20089;-59
2023/09/09 11:48:50;;;;;;;18.13;7.30;;;31.30;99.90;;;;;;4991790;28;20058;-60
2023/09/09 11:51:16;;;;;;;17.05;6.30;;;31.20;99.90;;;;;;4988850;28;20054;-61
2023/09/09 11:53:41;;;;;;;26.58;6.68;;;31.20;99.90;;;;;;4988900;28;20093;-59
2023/09/09 11:56:07;;;;;;;25.55;7.93;;;31.50;99.90;;;;;;4989784;28;20034;-58
2023/09/09 11:58:39;;;;;;;24.88;6.82;;;31.00;99.90;;;;;;4989657;28;20031;-59
2023/09/09 12:01:04;;;;;;;16.40;6.38;;;31.30;99.90;;;;;;4989634;28;20065;-60
2023/09/09 12:03:30;;;;;;;22.30;7.50;;;31.30;99.90;;;;;;4990332;28;20058;-59
2023/09/09 12:05:55;;;;;;;24.48;7.10;;;31.50;99.90;;;;;;4986671;28;20496;-60
2023/09/09 12:08:21;;;;;;;27.17;8.05;;;31.80;99.90;;;;;;4989586;28;20029;-61
2023/09/09 12:10:48;;;;;;;18.83;7.18;;;31.90;99.90;;;;;;4988980;28;20558;-59
2023/09/09 12:13:14;;;;;;;28.17;7.53;;;31.50;99.90;;;;;;4990375;28;20500;-57
2023/09/09 12:15:42;;;;;;;25.00;6.80;;;31.50;99.90;;;;;;4985938;28;20045;-60
2023/09/09 12:18:14;;;;;;;18.90;7.35;;;31.70;99.90;;;;;;4988540;28;20023;-60
2023/09/09 12:21:03;;;;;;;16.60;6.78;;;31.40;99.90;;;;;;4982998;28;20029;-61
2023/09/09 12:23:34;;;;;;;16.55;6.18;;;31.80;99.90;;;;;;4987657;28;20026;-60
2023/09/09 12:26:11;;;;;;;17.15;6.03;;;31.50;99.90;;;;;;4987469;28;20033;-59
2023/09/09 12:28:38;;;;;;;22.17;6.10;;;32.20;99.90;;;;;;4987255;28;20034;-60